createdAt,value
2023-02-08T00:01:12.046Z,100887.03
2023-02-08T00:03:40.566Z,100885.44
2023-02-08T00:06:10.196Z,100878.13
2023-02-08T00:08:40.550Z,100868.94
2023-02-08T00:11:10.700Z,100866.16
2023-02-08T00:13:41.857Z,100861.91
2023-02-08T00:16:12.391Z,100860.69
2023-02-08T00:18:40.826Z,100863.78
2023-02-08T00:21:11.037Z,100857.94
2023-02-08T00:23:40.788Z,100867.84
2023-02-08T00:26:09.077Z,100864.97
2023-02-08T00:28:37.685Z,100859.13
2023-02-08T00:31:06.265Z,100857.97
2023-02-08T00:33:34.660Z,100864.19
2023-02-08T00:36:03.898Z,100866.16
2023-02-08T00:38:32.356Z,100864.31
2023-02-08T00:41:01.927Z,100862.50
2023-02-08T00:43:30.238Z,100862.94
2023-02-08T00:45:59.566Z,100859.63
2023-02-08T00:48:27.888Z,100863.72
2023-02-08T00:51:00.710Z,100870.19
2023-02-08T00:53:29.508Z,100877.38
2023-02-08T00:55:57.868Z,100879.47
2023-02-08T00:58:27.320Z,100879.84
2023-02-08T01:00:55.370Z,100877.84
2023-02-08T01:03:24.724Z,100865.22
2023-02-08T01:05:52.902Z,100885.84
2023-02-08T01:08:22.176Z,100889.13
2023-02-08T01:10:50.258Z,100880.59
2023-02-08T01:13:18.503Z,100884.22
2023-02-08T01:15:47.979Z,100888.66
2023-02-08T01:18:16.013Z,100886.69
2023-02-08T01:20:43.998Z,100888.75
2023-02-08T01:23:12.155Z,100894.56
2023-02-08T01:25:40.150Z,100902.13
2023-02-08T01:28:08.158Z,100902.06
2023-02-08T01:30:36.322Z,100897.63
2023-02-08T01:35:34.033Z,100898.56
2023-02-08T01:38:02.035Z,100897.25
2023-02-08T01:40:29.986Z,100901.41
2023-02-08T01:42:58.192Z,100901.56
2023-02-08T01:45:30.035Z,100897.13
2023-02-08T01:48:08.270Z,100904.69
2023-02-08T01:50:45.339Z,100895.22
2023-02-08T01:53:14.093Z,100888.56
2023-02-08T01:55:48.231Z,100888.91
2023-02-08T01:58:17.962Z,100885.84
2023-02-08T02:00:46.804Z,100890.03
2023-02-08T02:03:17.093Z,100881.66
2023-02-08T02:05:50.853Z,100886.88
2023-02-08T02:08:18.925Z,100881.75
2023-02-08T02:10:49.314Z,100882.06
2023-02-08T02:13:21.105Z,100886.56
2023-02-08T02:15:50.383Z,100887.16
2023-02-08T02:18:24.679Z,100875.50
2023-02-08T02:21:11.374Z,100873.09
2023-02-08T02:24:12.672Z,100872.38
2023-02-08T02:27:10.766Z,100875.78
2023-02-08T02:29:56.438Z,100877.06
2023-02-08T02:32:59.833Z,100881.09
2023-02-08T02:35:38.129Z,100876.81
2023-02-08T02:38:13.966Z,100878.00
2023-02-08T02:40:50.017Z,100873.06
2023-02-08T02:43:41.471Z,100882.47
2023-02-08T02:46:21.258Z,100883.78
2023-02-08T02:48:54.502Z,100877.81
2023-02-08T02:51:28.460Z,100866.16
2023-02-08T02:54:00.811Z,100869.81
2023-02-08T02:56:33.572Z,100870.13
2023-02-08T02:59:06.178Z,100871.34
2023-02-08T03:01:34.464Z,100866.91
2023-02-08T03:04:13.329Z,100865.81
2023-02-08T03:06:55.892Z,100867.25
2023-02-08T03:09:37.859Z,100866.06
2023-02-08T03:12:13.524Z,100870.16
2023-02-08T03:14:50.206Z,100870.25
2023-02-08T03:17:32.650Z,100872.00
2023-02-08T03:20:08.610Z,100874.22
2023-02-08T03:22:46.300Z,100865.00
2023-02-08T03:25:21.128Z,100872.84
2023-02-08T03:27:57.040Z,100873.53
2023-02-08T03:30:32.095Z,100876.59
2023-02-08T03:33:04.065Z,100866.03
2023-02-08T03:35:35.978Z,100871.47
2023-02-08T03:38:10.227Z,100877.38
2023-02-08T03:40:41.065Z,100870.81
2023-02-08T03:43:14.210Z,100878.91
2023-02-08T03:45:47.710Z,100880.59
2023-02-08T03:48:20.178Z,100887.50
2023-02-08T03:50:51.831Z,100887.66
2023-02-08T03:53:24.209Z,100886.44
2023-02-08T03:55:57.750Z,100893.72
2023-02-08T03:58:33.656Z,100894.13
2023-02-08T04:01:07.064Z,100900.00
2023-02-08T04:03:36.528Z,100896.50
2023-02-08T04:06:04.635Z,100900.25
2023-02-08T04:08:34.034Z,100906.38
2023-02-08T04:11:02.057Z,100901.19
2023-02-08T04:13:30.038Z,100903.97
2023-02-08T04:15:58.149Z,100907.53
2023-02-08T04:18:26.297Z,100905.91
2023-02-08T04:20:54.282Z,100913.69
2023-02-08T04:23:22.283Z,100905.69
2023-02-08T04:25:51.914Z,100909.88
2023-02-08T04:28:19.952Z,100911.56
2023-02-08T04:30:48.312Z,100915.41
2023-02-08T04:33:16.821Z,100922.59
2023-02-08T04:35:44.968Z,100924.00
2023-02-08T04:38:13.063Z,100933.28
2023-02-08T04:40:41.608Z,100928.63
2023-02-08T04:43:11.343Z,100927.94
2023-02-08T04:45:39.436Z,100918.13
2023-02-08T04:48:08.255Z,100920.00
2023-02-08T04:50:36.630Z,100927.00
2023-02-08T04:53:04.625Z,100928.28
2023-02-08T04:55:32.742Z,100925.28
2023-02-08T04:58:00.849Z,100930.31
2023-02-08T05:00:30.353Z,100919.75
2023-02-08T05:02:59.935Z,100925.13
2023-02-08T05:05:28.853Z,100922.91
2023-02-08T05:07:56.906Z,100930.50
2023-02-08T05:10:25.096Z,100938.91
2023-02-08T05:12:53.222Z,100938.34
2023-02-08T05:15:21.322Z,100934.22
2023-02-08T05:17:50.697Z,100930.66
2023-02-08T05:20:18.872Z,100937.31
2023-02-08T05:22:47.102Z,100943.19
2023-02-08T05:25:15.163Z,100940.00
2023-02-08T05:27:43.358Z,100942.78
2023-02-08T05:30:12.362Z,100948.16
2023-02-08T05:32:40.666Z,100943.66
2023-02-08T05:35:10.262Z,100953.50
2023-02-08T05:37:38.264Z,100947.44
2023-02-08T05:40:06.968Z,100949.59
2023-02-08T05:42:34.953Z,100952.72
2023-02-08T05:45:02.981Z,100956.22
2023-02-08T05:47:30.995Z,100960.25
2023-02-08T05:49:59.102Z,100962.19
2023-02-08T05:52:28.702Z,100964.59
2023-02-08T05:54:56.665Z,100963.03
2023-02-08T05:57:24.695Z,100966.38
2023-02-08T05:59:52.738Z,100957.97
2023-02-08T06:02:20.714Z,100959.38
2023-02-08T06:04:48.726Z,100960.75
2023-02-08T06:07:16.935Z,100957.94
2023-02-08T06:09:48.465Z,100962.81
2023-02-08T06:12:16.605Z,100949.50
2023-02-08T06:14:45.056Z,100951.75
2023-02-08T06:17:13.054Z,100961.16
2023-02-08T06:19:41.089Z,100961.44
2023-02-08T06:22:09.264Z,100963.81
2023-02-08T06:24:37.260Z,100967.31
2023-02-08T06:27:06.658Z,100966.56
2023-02-08T06:29:34.663Z,100963.63
2023-02-08T06:32:02.738Z,100963.78
2023-02-08T06:34:32.057Z,100968.28
2023-02-08T06:37:02.283Z,100975.69
2023-02-08T06:39:30.755Z,100977.94
2023-02-08T06:41:58.879Z,100975.06
2023-02-08T06:44:28.395Z,100975.84
2023-02-08T06:46:56.384Z,100979.63
2023-02-08T06:49:24.598Z,100987.88
2023-02-08T06:51:52.656Z,100987.16
2023-02-08T06:54:20.827Z,100983.22
2023-02-08T06:56:48.856Z,100995.25
2023-02-08T06:59:16.821Z,100990.28
2023-02-08T07:01:46.151Z,100986.44
2023-02-08T07:04:14.130Z,100996.56
2023-02-08T07:06:42.106Z,100992.38
2023-02-08T07:09:10.161Z,100998.59
2023-02-08T07:11:38.181Z,101000.44
2023-02-08T07:14:06.184Z,100993.44
2023-02-08T07:16:34.351Z,100994.31
2023-02-08T07:19:03.700Z,100999.44
2023-02-08T07:21:31.757Z,101001.22
2023-02-08T07:23:59.837Z,100999.50
2023-02-08T07:26:27.841Z,101004.59
2023-02-08T07:28:56.120Z,101007.63
2023-02-08T07:31:26.449Z,101010.97
2023-02-08T07:33:54.425Z,101007.41
2023-02-08T07:36:23.760Z,101009.13
2023-02-08T07:38:51.982Z,101011.84
2023-02-08T07:41:20.099Z,101022.44
2023-02-08T07:43:48.079Z,101018.03
2023-02-08T07:46:18.651Z,101019.66
2023-02-08T07:48:46.876Z,101029.16
2023-02-08T07:51:15.119Z,101026.28
2023-02-08T07:53:44.849Z,101019.78
2023-02-08T07:56:12.993Z,101022.91
2023-02-08T07:58:41.425Z,101032.63
2023-02-08T08:01:21.555Z,101028.13
2023-02-08T08:03:50.800Z,101024.34
2023-02-08T08:06:19.292Z,101032.19
2023-02-08T08:08:48.676Z,101037.56
2023-02-08T08:11:17.408Z,101034.50
2023-02-08T08:13:45.567Z,101032.16
2023-02-08T08:16:14.134Z,101042.28
2023-02-08T08:18:42.323Z,101037.84
2023-02-08T08:21:10.663Z,101044.75
2023-02-08T08:23:39.116Z,101036.91
2023-02-08T08:26:13.989Z,101036.53
2023-02-08T08:28:42.506Z,101040.41
2023-02-08T08:31:12.153Z,101043.06
2023-02-08T08:33:40.347Z,101038.25
2023-02-08T08:36:09.402Z,101036.53
2023-02-08T08:38:38.767Z,101039.84
2023-02-08T08:41:09.342Z,101037.53
2023-02-08T08:43:38.820Z,101040.78
2023-02-08T08:46:07.549Z,101040.97
2023-02-08T08:48:35.819Z,101050.44
2023-02-08T08:51:04.284Z,101049.34
2023-02-08T08:53:32.394Z,101039.69
2023-02-08T08:56:00.799Z,101033.22
2023-02-08T08:58:28.786Z,101049.25
2023-02-08T09:01:00.418Z,101039.09
2023-02-08T09:03:29.897Z,101040.88
2023-02-08T09:05:58.626Z,101040.78
2023-02-08T09:08:26.713Z,101038.91
2023-02-08T09:10:54.921Z,101030.44
2023-02-08T09:13:23.137Z,101035.75
2023-02-08T09:15:51.170Z,101031.97
2023-02-08T09:18:20.462Z,101032.38
2023-02-08T09:20:48.332Z,101033.44
2023-02-08T09:23:16.479Z,101030.13
2023-02-08T09:25:44.501Z,101023.97
2023-02-08T09:28:12.525Z,101027.13
2023-02-08T09:30:41.010Z,101026.97
2023-02-08T09:33:09.300Z,101029.53
2023-02-08T09:35:38.628Z,101022.81
2023-02-08T09:38:06.517Z,101019.41
2023-02-08T09:40:44.248Z,101021.63
2023-02-08T09:43:17.569Z,101016.50
2023-02-08T09:46:00.223Z,101019.16
2023-02-08T09:48:35.951Z,101012.16
2023-02-08T09:51:14.743Z,101015.41
2023-02-08T09:53:47.522Z,101017.94
2023-02-08T09:56:22.383Z,101016.34
2023-02-08T09:58:53.338Z,101018.34
2023-02-08T10:01:23.921Z,101016.97
2023-02-08T10:03:54.575Z,101011.44
2023-02-08T10:06:24.114Z,101014.06
2023-02-08T10:08:53.617Z,101023.38
2023-02-08T10:11:49.517Z,101022.81
2023-02-08T10:14:40.473Z,101028.88
2023-02-08T10:17:26.385Z,101027.94
2023-02-08T10:20:06.129Z,101027.88
2023-02-08T10:22:47.017Z,101033.69
2023-02-08T10:25:46.380Z,101028.31
2023-02-08T10:28:35.835Z,101036.66
2023-02-08T10:31:08.821Z,101032.84
2023-02-08T10:33:46.514Z,101035.22
2023-02-08T10:36:17.968Z,101035.22
2023-02-08T10:38:50.909Z,101039.50
2023-02-08T10:41:23.500Z,101039.28
2023-02-08T10:43:55.929Z,101032.75
2023-02-08T10:46:29.152Z,101038.97
2023-02-08T10:49:05.159Z,101040.75
2023-02-08T10:51:33.389Z,101034.50
2023-02-08T10:54:02.809Z,101026.38
2023-02-08T10:56:44.343Z,101021.56
2023-02-08T10:59:20.048Z,101016.91
2023-02-08T11:01:49.708Z,101023.16
2023-02-08T11:04:18.380Z,101014.50
2023-02-08T11:06:48.270Z,101014.91
2023-02-08T11:09:29.234Z,101019.28
2023-02-08T11:11:58.796Z,101012.78
2023-02-08T11:14:44.640Z,101010.63
2023-02-08T11:17:27.052Z,101019.44
2023-02-08T11:19:55.258Z,101016.38
2023-02-08T11:22:25.800Z,101014.13
2023-02-08T11:25:01.048Z,101009.28
2023-02-08T11:27:34.820Z,101003.22
2023-02-08T11:30:23.336Z,101007.53
2023-02-08T11:33:23.315Z,100992.03
2023-02-08T11:35:57.744Z,100988.13
2023-02-08T11:38:28.477Z,100989.16
2023-02-08T11:41:00.539Z,100973.97
2023-02-08T11:43:31.119Z,100963.41
2023-02-08T11:46:00.717Z,100958.81
2023-02-08T11:48:41.782Z,100956.16
2023-02-08T11:51:11.277Z,100964.72
2023-02-08T11:53:41.790Z,100966.44
2023-02-08T11:56:19.968Z,100963.31
2023-02-08T11:59:19.498Z,100967.91
2023-02-08T12:01:48.030Z,100961.97
2023-02-08T12:04:17.657Z,100952.94
2023-02-08T12:07:12.615Z,100955.28
2023-02-08T12:10:07.807Z,100943.16
2023-02-08T12:12:56.268Z,100939.91
2023-02-08T12:15:33.579Z,100937.72
2023-02-08T12:18:27.593Z,100932.91
2023-02-08T12:21:04.912Z,100927.06
2023-02-08T12:23:47.713Z,100932.19
2023-02-08T12:26:25.069Z,100917.38
2023-02-08T12:29:10.928Z,100914.53
2023-02-08T12:31:54.037Z,100904.00
2023-02-08T15:27:28.333Z,100813.72
2023-02-08T15:29:56.539Z,100814.25
2023-02-08T15:32:27.304Z,100813.81
2023-02-08T15:34:57.194Z,100811.75
2023-02-08T15:37:25.729Z,100812.09
2023-02-08T15:39:56.371Z,100812.75
2023-02-08T15:42:29.080Z,100812.44
2023-02-08T15:44:59.369Z,100808.22
2023-02-08T15:47:31.173Z,100809.31
2023-02-08T15:49:59.996Z,100819.34
2023-02-08T15:52:31.669Z,100816.28
2023-02-08T15:54:59.917Z,100812.56
2023-02-08T15:57:37.724Z,100816.34
2023-02-08T16:00:14.318Z,100808.47
2023-02-08T16:02:43.080Z,100814.63
2023-02-08T16:05:22.231Z,100824.44
2023-02-08T16:07:51.808Z,100822.66
2023-02-08T16:10:26.753Z,100822.59
2023-02-08T16:13:00.200Z,100823.38
2023-02-08T16:15:41.234Z,100833.47
2023-02-08T16:18:34.528Z,100824.50
2023-02-08T16:21:04.538Z,100823.84
2023-02-08T16:23:33.869Z,100828.66
2023-02-08T16:26:18.577Z,100831.06
2023-02-08T16:28:53.365Z,100838.63
2023-02-08T16:31:23.542Z,100842.72
2023-02-08T16:33:59.445Z,100844.66
2023-02-08T16:36:33.749Z,100840.75
2023-02-08T16:39:39.255Z,100842.97
2023-02-08T16:42:20.003Z,100844.44
2023-02-08T16:45:20.563Z,100845.66
2023-02-08T16:47:51.909Z,100812.69
2023-02-08T16:50:22.101Z,100847.09
2023-02-08T16:52:53.610Z,100856.44
2023-02-08T16:55:24.492Z,100853.16
2023-02-08T16:57:54.137Z,100846.25
2023-02-08T17:00:27.028Z,100852.91
2023-02-08T17:02:56.137Z,100857.75
2023-02-08T17:05:26.039Z,100866.25
2023-02-08T17:07:54.377Z,100871.09
2023-02-08T17:10:28.734Z,100865.53
2023-02-08T17:13:13.345Z,100867.44
2023-02-08T17:15:47.743Z,100872.00
2023-02-08T17:18:16.172Z,100868.63
2023-02-08T17:20:44.406Z,100872.47
2023-02-08T17:23:13.332Z,100871.03
2023-02-08T17:25:41.600Z,100874.25
2023-02-08T17:28:16.014Z,100889.84
2023-02-08T17:30:45.105Z,100882.66
2023-02-08T17:33:18.414Z,100890.25
2023-02-08T17:35:47.831Z,100888.22
2023-02-08T17:38:15.959Z,100893.00
2023-02-08T17:40:44.344Z,100886.44
2023-02-08T17:43:13.971Z,100891.81
2023-02-08T17:45:43.621Z,100905.16
2023-02-08T17:48:13.350Z,100911.88
2023-02-08T17:50:46.546Z,100904.84
2023-02-08T17:53:15.996Z,100906.53
2023-02-08T17:55:44.959Z,100904.09
2023-02-08T17:58:13.693Z,100907.84
2023-02-08T18:00:42.151Z,100916.66
2023-02-08T18:03:10.295Z,100909.63
2023-02-08T18:05:38.856Z,100912.09
2023-02-08T18:08:08.236Z,100909.84
2023-02-08T18:10:36.638Z,100916.53
2023-02-08T18:13:04.656Z,100909.28
2023-02-08T18:15:32.632Z,100914.28
2023-02-08T18:18:00.917Z,100914.56
2023-02-08T18:20:28.847Z,100919.53
2023-02-08T18:22:56.761Z,100922.19
2023-02-08T18:25:26.401Z,100915.69
2023-02-08T18:27:54.487Z,100918.34
2023-02-08T18:30:22.815Z,100910.28
2023-02-08T18:32:50.810Z,100917.91
2023-02-08T18:35:18.762Z,100923.25
2023-02-08T18:37:49.506Z,100923.00
2023-02-08T18:40:18.521Z,100926.44
2023-02-08T18:42:47.927Z,100924.94
2023-02-08T18:45:15.920Z,100930.47
2023-02-08T18:47:44.108Z,100932.19
2023-02-08T18:50:12.456Z,100918.88
2023-02-08T18:52:40.422Z,100931.22
2023-02-08T18:55:09.327Z,100927.19
2023-02-08T18:57:38.953Z,100927.94
2023-02-08T19:00:09.649Z,100927.53
2023-02-08T19:02:39.518Z,100921.94
2023-02-08T19:05:08.226Z,100924.81
2023-02-08T19:07:36.413Z,100924.81
2023-02-08T19:10:04.633Z,100927.16
2023-02-08T19:12:32.697Z,100928.00
2023-02-08T19:15:00.690Z,100929.09
2023-02-08T19:17:30.180Z,100930.47
2023-02-08T19:19:58.147Z,100931.03
2023-02-08T19:22:26.245Z,100944.63
2023-02-08T19:24:54.514Z,100948.56
2023-02-08T19:27:22.603Z,100940.63
2023-02-08T19:29:52.344Z,100944.88
2023-02-08T19:32:20.524Z,100949.00
2023-02-08T19:34:50.067Z,100946.13
2023-02-08T19:37:18.033Z,100937.63
2023-02-08T19:39:46.016Z,100940.19
2023-02-08T19:42:14.021Z,100939.72
2023-02-08T19:44:42.000Z,100945.22
2023-02-08T19:47:10.181Z,100940.31
2023-02-08T19:49:38.167Z,100935.22
2023-02-08T19:52:07.837Z,100939.91
2023-02-08T19:54:35.960Z,100947.41
2023-02-08T19:57:03.946Z,100947.28
2023-02-08T19:59:35.316Z,100939.16
2023-02-08T20:02:03.685Z,100945.00
2023-02-08T20:04:31.832Z,100956.22
2023-02-08T20:06:59.926Z,100952.22
2023-02-08T20:09:29.470Z,100956.34
2023-02-08T20:11:58.183Z,100951.72
2023-02-08T20:14:28.816Z,100955.06
2023-02-08T20:16:57.367Z,100957.13
2023-02-08T20:19:28.362Z,100953.63
2023-02-08T20:21:56.423Z,100949.38
2023-02-08T20:24:24.778Z,100946.47
2023-02-08T20:26:54.316Z,100955.94
2023-02-08T20:29:22.791Z,100956.31
2023-02-08T20:31:55.868Z,100954.63
2023-02-08T20:34:24.081Z,100957.84
2023-02-08T20:37:06.172Z,100954.63
2023-02-08T20:39:36.258Z,100951.78
2023-02-08T20:42:06.805Z,100953.38
2023-02-08T20:44:35.083Z,100959.81
2023-02-08T20:47:03.284Z,100958.19
2023-02-08T20:49:32.474Z,100957.63
2023-02-08T20:52:00.604Z,100931.53
2023-02-08T20:54:28.770Z,100957.53
2023-02-08T20:56:56.740Z,100968.31
2023-02-08T20:59:26.304Z,100964.06
2023-02-08T21:01:54.499Z,100969.72
2023-02-08T21:04:23.892Z,100968.19
2023-02-08T21:06:54.356Z,100976.53
2023-02-08T21:09:22.611Z,100977.72
2023-02-08T21:11:51.539Z,100974.38
2023-02-08T21:14:21.463Z,100974.19
2023-02-08T21:16:52.524Z,100979.31
2023-02-08T21:19:21.551Z,100981.88
2023-02-08T21:21:51.652Z,100988.28
2023-02-08T21:24:19.979Z,100988.28
2023-02-08T21:26:48.295Z,100984.59
2023-02-08T21:29:16.276Z,100981.03
2023-02-08T21:31:44.740Z,100985.53
2023-02-08T21:34:14.509Z,100984.53
2023-02-08T21:36:42.479Z,100990.19
2023-02-08T21:39:10.493Z,100988.81
2023-02-08T21:41:38.742Z,100999.19
2023-02-08T21:44:08.384Z,100999.84
2023-02-08T21:46:36.620Z,100993.63
2023-02-08T21:49:22.395Z,100990.63
2023-02-08T21:52:09.230Z,100992.31
2023-02-08T21:54:44.548Z,101007.59
2023-02-08T21:57:17.899Z,101004.81
2023-02-08T21:59:46.784Z,101008.66
2023-02-08T22:02:16.730Z,101005.31
2023-02-08T22:04:46.812Z,101010.44
2023-02-08T22:07:16.519Z,101010.88
2023-02-08T22:09:44.655Z,101015.06
2023-02-08T22:12:15.769Z,101011.50
2023-02-08T22:14:44.567Z,101013.59
2023-02-08T22:17:12.687Z,101014.69
2023-02-08T22:19:41.750Z,101014.91
2023-02-08T22:22:10.038Z,101014.91
2023-02-08T22:24:39.468Z,101012.97
2023-02-08T22:27:07.593Z,101011.44
2023-02-08T22:29:35.736Z,101007.38
2023-02-08T22:32:05.612Z,101009.69
2023-02-08T22:34:34.026Z,101006.75
2023-02-08T22:37:04.256Z,101006.13
2023-02-08T22:39:34.224Z,100994.06
2023-02-08T22:42:08.225Z,100998.94
2023-02-08T22:44:36.421Z,101000.22
2023-02-08T22:47:06.387Z,101004.13
2023-02-08T22:49:34.939Z,101002.91
2023-02-08T22:52:03.441Z,101003.44
2023-02-08T22:54:31.396Z,101012.63
2023-02-08T22:56:59.481Z,101003.53
2023-02-08T22:59:29.254Z,101010.88
2023-02-08T23:01:58.204Z,101004.91
2023-02-08T23:04:26.395Z,101005.59
2023-02-08T23:06:54.481Z,101008.25
2023-02-08T23:09:22.611Z,101007.25
2023-02-08T23:11:50.714Z,101010.63
2023-02-08T23:14:18.796Z,101010.75
2023-02-08T23:16:48.299Z,101017.09
2023-02-08T23:19:17.224Z,101017.72
2023-02-08T23:21:45.975Z,101017.50
2023-02-08T23:24:13.998Z,101019.44
2023-02-08T23:26:41.979Z,101017.34
2023-02-08T23:29:10.215Z,101019.59
2023-02-08T23:31:41.396Z,101018.72
2023-02-08T23:34:11.530Z,101020.84
2023-02-08T23:36:39.916Z,101021.78
2023-02-08T23:39:08.189Z,101023.56
2023-02-08T23:41:36.706Z,101032.00
2023-02-08T23:44:05.241Z,101023.31
2023-02-08T23:46:33.571Z,101029.75
2023-02-08T23:49:01.567Z,101027.13
2023-02-08T23:51:31.145Z,101032.63
2023-02-08T23:53:59.309Z,101034.59
2023-02-08T23:56:28.915Z,101038.69
2023-02-08T23:58:58.953Z,101032.31
